createdAt,value
2023-01-09T00:00:24.276Z,12.00
2023-01-09T00:01:24.156Z,11.20
2023-01-09T00:02:24.201Z,12.50
2023-01-09T00:03:24.141Z,11.60
2023-01-09T00:04:24.138Z,8.80
2023-01-09T00:05:24.107Z,9.70
2023-01-09T00:06:24.086Z,10.10
2023-01-09T00:07:24.098Z,12.00
2023-01-09T00:08:24.059Z,10.20
2023-01-09T00:09:24.086Z,10.30
2023-01-09T00:10:24.031Z,10.60
2023-01-09T00:11:24.066Z,9.20
2023-01-09T00:12:24.033Z,9.40
2023-01-09T00:13:23.996Z,7.60
2023-01-09T00:14:23.998Z,11.50
2023-01-09T00:15:23.989Z,9.70
2023-01-09T00:16:23.978Z,11.00
2023-01-09T00:17:23.980Z,10.60
2023-01-09T00:18:23.922Z,11.10
2023-01-09T00:19:23.919Z,9.50
2023-01-09T00:20:23.916Z,10.90
2023-01-09T00:21:23.927Z,10.50
2023-01-09T00:22:23.879Z,10.80
2023-01-09T00:23:23.874Z,10.00
2023-01-09T00:24:23.843Z,10.50
2023-01-09T00:25:23.842Z,10.80
2023-01-09T00:26:23.866Z,10.00
2023-01-09T00:27:23.842Z,10.10
2023-01-09T00:28:23.781Z,11.50
2023-01-09T00:29:23.786Z,9.20
2023-01-09T00:30:23.835Z,8.80
2023-01-09T00:31:23.785Z,9.20
2023-01-09T00:32:23.737Z,10.10
2023-01-09T00:33:23.729Z,9.40
2023-01-09T00:34:23.703Z,10.50
2023-01-09T00:35:23.702Z,9.60
2023-01-09T00:36:23.747Z,10.10
2023-01-09T00:37:23.703Z,11.30
2023-01-09T00:38:23.659Z,9.30
2023-01-09T00:39:23.659Z,11.80
2023-01-09T00:40:23.671Z,10.10
2023-01-09T00:41:23.625Z,10.50
2023-01-09T00:42:23.631Z,9.90
2023-01-09T00:43:23.593Z,11.30
2023-01-09T00:44:23.593Z,10.50
2023-01-09T00:45:23.572Z,10.50
2023-01-09T00:46:23.590Z,9.60
2023-01-09T00:47:23.574Z,8.30
2023-01-09T00:48:23.518Z,8.00
2023-01-09T00:49:23.525Z,7.60
2023-01-09T00:50:23.508Z,9.20
2023-01-09T00:51:23.517Z,7.00
2023-01-09T00:52:23.484Z,7.60
2023-01-09T00:53:23.510Z,7.90
2023-01-09T00:54:23.450Z,7.50
2023-01-09T00:55:23.448Z,7.50
2023-01-09T00:56:23.417Z,7.70
2023-01-09T00:57:23.444Z,7.20
2023-01-09T00:58:23.381Z,7.40
2023-01-09T00:59:23.387Z,7.90
2023-01-09T01:00:23.395Z,7.70
2023-01-09T01:01:23.486Z,11.80
2023-01-09T01:02:23.606Z,27.80
2023-01-09T01:03:23.324Z,32.90
2023-01-09T01:04:23.355Z,27.90
2023-01-09T01:05:23.303Z,8.90
2023-01-09T01:06:23.302Z,8.80
2023-01-09T01:07:23.288Z,7.70
2023-01-09T01:08:23.278Z,9.30
2023-01-09T01:09:23.245Z,10.50
2023-01-09T01:10:23.234Z,10.60
2023-01-09T01:11:23.250Z,9.70
2023-01-09T01:12:23.216Z,9.30
2023-01-09T01:13:23.237Z,8.90
2023-01-09T01:14:23.176Z,7.80
2023-01-09T01:15:23.178Z,10.40
2023-01-09T01:16:23.178Z,8.00
2023-01-09T01:17:23.140Z,8.30
2023-01-09T01:18:23.157Z,8.30
2023-01-09T01:19:23.123Z,9.00
2023-01-09T01:20:23.092Z,8.40
2023-01-09T01:21:23.128Z,9.50
2023-01-09T01:22:23.072Z,9.50
2023-01-09T01:23:23.100Z,8.40
2023-01-09T01:24:23.048Z,8.10
2023-01-09T01:25:23.034Z,7.80
2023-01-09T01:26:23.034Z,8.00
2023-01-09T01:27:23.021Z,8.20
2023-01-09T01:28:23.012Z,8.20
2023-01-09T01:29:23.023Z,7.00
2023-01-09T01:30:22.963Z,8.10
2023-01-09T01:31:22.964Z,7.40
2023-01-09T01:32:22.939Z,8.90
2023-01-09T01:33:22.931Z,6.70
2023-01-09T01:34:22.937Z,8.00
2023-01-09T01:35:22.939Z,7.90
2023-01-09T01:36:22.873Z,6.90
2023-01-09T01:37:22.874Z,7.50
2023-01-09T01:38:22.852Z,7.60
2023-01-09T01:39:22.859Z,7.60
2023-01-09T01:40:22.853Z,8.20
2023-01-09T01:41:22.852Z,7.60
2023-01-09T01:42:22.840Z,7.20
2023-01-09T01:43:22.803Z,7.70
2023-01-09T01:44:22.787Z,7.80
2023-01-09T01:45:22.791Z,7.30
2023-01-09T01:46:22.784Z,8.00
2023-01-09T01:47:22.753Z,8.10
2023-01-09T01:48:37.328Z,7.80
2023-01-09T01:49:22.731Z,7.40
2023-01-09T01:50:22.739Z,7.70
2023-01-09T01:51:22.721Z,9.10
2023-01-09T01:52:22.675Z,7.40
2023-01-09T01:53:22.677Z,7.60
2023-01-09T01:54:22.647Z,7.80
2023-01-09T01:55:22.638Z,7.40
2023-01-09T01:56:22.649Z,8.50
2023-01-09T01:57:22.607Z,8.90
2023-01-09T01:58:22.597Z,7.30
2023-01-09T01:59:22.577Z,7.50
2023-01-09T02:04:16.540Z,7.30
2023-01-09T02:05:17.515Z,7.80
2023-01-09T02:06:17.521Z,8.00
2023-01-09T02:07:17.487Z,7.60
2023-01-09T02:08:17.460Z,7.60
2023-01-09T02:09:17.471Z,8.20
2023-01-09T02:10:17.463Z,8.00
2023-01-09T02:11:17.456Z,8.30
2023-01-09T02:12:17.437Z,8.30
2023-01-09T02:13:17.395Z,7.70
2023-01-09T02:14:17.381Z,7.20
2023-01-09T02:15:17.417Z,7.90
2023-01-09T02:16:17.383Z,7.80
2023-01-09T02:17:17.344Z,7.20
2023-01-09T02:18:17.331Z,7.80
2023-01-09T02:19:17.355Z,8.20
2023-01-09T02:20:17.298Z,6.80
2023-01-09T02:21:17.335Z,7.50
2023-01-09T02:22:17.269Z,9.20
2023-01-09T02:23:17.275Z,6.80
2023-01-09T02:24:17.256Z,7.70
2023-01-09T02:25:17.268Z,7.10
2023-01-09T02:26:17.237Z,7.00
2023-01-09T02:27:17.224Z,8.00
2023-01-09T02:28:17.185Z,7.60
2023-01-09T02:29:17.189Z,7.00
2023-01-09T02:30:17.169Z,7.40
2023-01-09T02:31:17.239Z,7.20
2023-01-09T02:32:17.167Z,9.60
2023-01-09T02:33:17.140Z,7.50
2023-01-09T02:34:17.121Z,6.60
2023-01-09T02:35:17.120Z,7.50
2023-01-09T02:36:17.124Z,7.10
2023-01-09T02:37:17.111Z,6.70
2023-01-09T02:38:17.064Z,7.50
2023-01-09T02:39:17.056Z,7.00
2023-01-09T02:40:17.030Z,6.70
2023-01-09T02:41:17.031Z,8.10
2023-01-09T02:42:17.033Z,7.30
2023-01-09T02:43:17.016Z,6.50
2023-01-09T02:44:17.017Z,7.00
2023-01-09T02:45:16.984Z,7.20
2023-01-09T02:46:16.955Z,7.20
2023-01-09T02:47:17.016Z,7.50
2023-01-09T02:48:16.953Z,6.60
2023-01-09T02:49:16.964Z,6.30
2023-01-09T02:50:16.924Z,7.50
2023-01-09T02:51:16.908Z,6.70
2023-01-09T02:52:16.899Z,6.90
2023-01-09T02:53:16.871Z,7.00
2023-01-09T02:54:16.856Z,6.80
2023-01-09T02:55:16.848Z,6.80
2023-01-09T02:56:16.852Z,6.90
2023-01-09T02:57:16.831Z,6.70
2023-01-09T02:58:16.826Z,6.60
2023-01-09T02:59:16.793Z,6.50
2023-01-09T03:00:16.769Z,7.90
2023-01-09T03:01:16.898Z,6.70
2023-01-09T03:02:16.742Z,6.60
2023-01-09T03:03:16.762Z,7.10
2023-01-09T03:04:16.725Z,6.70
2023-01-09T03:05:16.715Z,6.50
2023-01-09T03:06:16.707Z,7.20
2023-01-09T03:07:16.701Z,6.40
2023-01-09T03:08:16.710Z,6.40
2023-01-09T03:09:16.667Z,7.00
2023-01-09T03:10:16.672Z,7.40
2023-01-09T03:11:16.638Z,7.90
2023-01-09T03:12:16.616Z,7.20
2023-01-09T03:13:16.607Z,8.00
2023-01-09T03:14:16.594Z,6.70
2023-01-09T03:15:16.600Z,7.30
2023-01-09T03:16:16.633Z,6.90
2023-01-09T03:17:16.557Z,7.00
2023-01-09T03:18:16.538Z,7.20
2023-01-09T03:19:16.526Z,7.70
2023-01-09T03:20:16.602Z,15.90
2023-01-09T03:21:16.512Z,19.90
2023-01-09T03:22:16.540Z,25.90
2023-01-09T03:23:16.472Z,14.40
2023-01-09T03:24:16.452Z,9.40
2023-01-09T03:25:16.449Z,8.20
2023-01-09T03:26:16.456Z,7.50
2023-01-09T03:27:16.432Z,7.50
2023-01-09T03:28:16.401Z,8.10
2023-01-09T03:29:16.422Z,9.40
2023-01-09T03:30:16.399Z,14.10
2023-01-09T03:31:16.446Z,11.00
2023-01-09T03:32:16.356Z,9.70
2023-01-09T03:33:16.348Z,10.50
2023-01-09T03:34:16.356Z,10.40
2023-01-09T03:35:16.353Z,7.90
2023-01-09T03:36:16.328Z,7.90
2023-01-09T03:37:16.335Z,7.80
2023-01-09T03:38:16.279Z,8.10
2023-01-09T03:39:16.307Z,7.50
2023-01-09T03:40:16.272Z,7.60
2023-01-09T03:41:16.239Z,7.30
2023-01-09T03:42:16.249Z,7.70
2023-01-09T03:43:16.242Z,7.00
2023-01-09T03:44:16.195Z,7.10
2023-01-09T03:45:16.193Z,7.30
2023-01-09T03:46:16.174Z,6.80
2023-01-09T03:47:16.192Z,7.20
2023-01-09T03:48:16.178Z,8.10
2023-01-09T03:49:16.145Z,8.60
2023-01-09T03:50:16.111Z,7.60
2023-01-09T03:51:16.116Z,8.00
2023-01-09T03:52:16.095Z,7.60
2023-01-09T03:53:16.103Z,7.30
2023-01-09T03:54:16.058Z,8.20
2023-01-09T03:55:16.100Z,7.40
2023-01-09T03:56:16.040Z,7.60
2023-01-09T03:57:16.033Z,7.80
2023-01-09T03:58:16.014Z,7.40
2023-01-09T03:59:16.039Z,7.30
2023-01-09T04:00:15.991Z,8.00
2023-01-09T04:01:16.105Z,9.30
2023-01-09T04:02:16.124Z,8.60
2023-01-09T04:03:15.971Z,9.80
2023-01-09T04:04:16.076Z,11.20
2023-01-09T04:05:15.929Z,24.90
2023-01-09T04:06:15.914Z,10.80
2023-01-09T04:07:15.933Z,12.90
2023-01-09T04:08:15.876Z,11.40
2023-01-09T04:09:15.889Z,9.10
2023-01-09T04:10:15.848Z,8.40
2023-01-09T04:11:15.855Z,7.70
2023-01-09T04:12:15.853Z,7.40
2023-01-09T04:13:15.826Z,7.00
2023-01-09T04:14:15.796Z,7.30
2023-01-09T04:15:15.808Z,7.30
2023-01-09T04:16:15.874Z,8.60
2023-01-09T04:17:15.759Z,8.00
2023-01-09T04:18:15.749Z,7.40
2023-01-09T04:19:15.746Z,7.00
2023-01-09T04:20:15.717Z,8.50
2023-01-09T04:21:15.731Z,8.00
2023-01-09T04:22:15.722Z,7.80
2023-01-09T04:23:15.700Z,9.20
2023-01-09T04:24:15.727Z,8.60
2023-01-09T04:25:15.690Z,7.70
2023-01-09T04:26:15.672Z,7.50
2023-01-09T04:27:15.653Z,7.90
2023-01-09T04:28:15.618Z,7.30
2023-01-09T04:29:15.614Z,7.20
2023-01-09T04:30:15.610Z,8.20
2023-01-09T04:31:15.614Z,7.40
2023-01-09T04:32:15.565Z,7.30
2023-01-09T04:33:15.562Z,8.10
2023-01-09T04:34:15.546Z,8.10
2023-01-09T04:35:15.584Z,8.40
2023-01-09T04:36:15.525Z,8.70
2023-01-09T04:37:15.504Z,8.60
2023-01-09T04:38:15.483Z,8.10
2023-01-09T04:39:15.499Z,9.10
2023-01-09T04:40:15.491Z,8.40
2023-01-09T04:41:15.459Z,8.30
2023-01-09T04:42:15.436Z,10.70
2023-01-09T04:43:15.452Z,8.30
2023-01-09T04:44:15.433Z,9.30
2023-01-09T04:45:15.427Z,9.90
2023-01-09T04:46:15.444Z,9.60
2023-01-09T04:47:15.391Z,8.70
2023-01-09T04:48:15.376Z,9.00
2023-01-09T04:49:15.351Z,10.10
2023-01-09T04:50:15.330Z,10.20
2023-01-09T04:51:15.347Z,18.40
2023-01-09T04:52:15.299Z,12.70
2023-01-09T04:53:15.331Z,13.70
2023-01-09T04:54:15.326Z,14.80
2023-01-09T04:55:15.315Z,12.70
2023-01-09T04:56:15.271Z,9.90
2023-01-09T04:57:15.287Z,8.90
2023-01-09T04:58:15.227Z,8.20
2023-01-09T04:59:15.211Z,9.20
2023-01-09T05:00:15.246Z,10.30
2023-01-09T05:01:15.262Z,9.90
2023-01-09T05:02:15.314Z,11.40
2023-01-09T05:03:15.179Z,12.00
2023-01-09T05:04:15.181Z,12.10
2023-01-09T05:05:15.212Z,12.90
2023-01-09T05:06:15.148Z,13.40
2023-01-09T05:07:15.133Z,12.40
2023-01-09T05:08:15.087Z,12.20
2023-01-09T05:09:15.091Z,12.20
2023-01-09T05:10:15.098Z,13.20
2023-01-09T05:11:15.060Z,21.80
2023-01-09T05:12:15.041Z,16.20
2023-01-09T05:13:15.053Z,15.80
2023-01-09T05:14:15.011Z,13.00
2023-01-09T05:15:15.022Z,13.20
2023-01-09T05:16:15.041Z,13.80
2023-01-09T05:17:15.016Z,11.20
2023-01-09T05:18:14.981Z,11.90
2023-01-09T05:19:15.125Z,9.90
2023-01-09T05:20:14.964Z,9.30
2023-01-09T05:21:14.962Z,9.00
2023-01-09T05:22:14.906Z,9.50
2023-01-09T05:23:14.898Z,9.50
2023-01-09T05:24:14.951Z,9.50
2023-01-09T05:25:14.883Z,10.00
2023-01-09T05:26:14.881Z,8.40
2023-01-09T05:27:14.840Z,8.20
2023-01-09T05:28:14.821Z,8.60
2023-01-09T05:29:14.822Z,8.40
2023-01-09T05:30:17.310Z,9.00
2023-01-09T05:31:14.944Z,9.40
2023-01-09T05:32:14.765Z,8.70
2023-01-09T05:33:14.773Z,8.60
2023-01-09T05:34:14.756Z,8.60
2023-01-09T05:35:14.728Z,8.60
2023-01-09T05:36:14.779Z,9.30
2023-01-09T05:37:14.749Z,9.10
2023-01-09T05:38:14.704Z,8.70
2023-01-09T05:39:14.688Z,9.50
2023-01-09T05:40:14.708Z,13.20
2023-01-09T05:41:14.660Z,14.40
2023-01-09T05:42:14.669Z,16.60
2023-01-09T05:43:14.639Z,16.80
2023-01-09T05:44:14.617Z,17.50
2023-01-09T05:45:14.615Z,11.50
2023-01-09T05:46:14.610Z,10.70
2023-01-09T05:47:14.612Z,11.60
2023-01-09T05:48:14.609Z,11.90
2023-01-09T05:49:14.556Z,14.90
2023-01-09T05:50:14.534Z,14.30
2023-01-09T05:51:14.527Z,15.80
2023-01-09T05:52:14.529Z,12.70
2023-01-09T05:53:14.536Z,19.60
2023-01-09T05:54:14.485Z,21.30
2023-01-09T05:55:14.504Z,20.30
2023-01-09T05:56:14.472Z,21.20
2023-01-09T05:57:14.462Z,13.80
2023-01-09T05:58:14.438Z,14.50
2023-01-09T05:59:14.466Z,12.30
2023-01-09T06:00:14.396Z,9.90
2023-01-09T06:01:14.445Z,10.70
2023-01-09T06:02:14.478Z,12.10
2023-01-09T06:03:14.435Z,9.70
2023-01-09T06:04:14.379Z,9.70
2023-01-09T06:05:14.352Z,10.30
2023-01-09T06:06:14.318Z,9.20
2023-01-09T06:07:19.480Z,15.30
2023-01-09T06:08:14.308Z,15.20
2023-01-09T06:09:14.328Z,10.10
2023-01-09T06:10:14.267Z,10.00
2023-01-09T06:11:14.287Z,16.20
2023-01-09T06:12:14.256Z,15.70
2023-01-09T06:13:14.277Z,13.20
2023-01-09T06:14:14.243Z,12.50
2023-01-09T06:15:14.211Z,10.20
2023-01-09T06:16:14.282Z,13.20
2023-01-09T06:17:14.192Z,11.30
2023-01-09T06:18:14.202Z,11.60
2023-01-09T06:19:14.156Z,12.40
2023-01-09T06:20:14.181Z,10.40
2023-01-09T06:21:14.164Z,6.50
2023-01-09T06:22:14.152Z,5.50
2023-01-09T06:23:14.134Z,5.50
2023-01-09T06:24:14.105Z,5.80
2023-01-09T06:25:14.084Z,6.30
2023-01-09T06:26:14.077Z,4.20
2023-01-09T06:27:14.077Z,3.40
2023-01-09T06:28:14.088Z,4.10
2023-01-09T06:29:14.026Z,3.50
2023-01-09T06:30:14.013Z,3.20
2023-01-09T06:31:13.998Z,3.60
2023-01-09T06:32:14.026Z,4.40
2023-01-09T06:33:13.973Z,3.80
2023-01-09T06:34:13.969Z,4.70
2023-01-09T06:35:13.971Z,4.10
2023-01-09T06:36:13.959Z,3.50
2023-01-09T06:37:13.907Z,3.70
2023-01-09T06:38:13.913Z,3.10
2023-01-09T06:39:13.902Z,2.90
2023-01-09T06:40:13.884Z,3.90
2023-01-09T06:41:13.888Z,3.70
2023-01-09T06:42:13.860Z,3.40
2023-01-09T06:43:13.851Z,3.40
2023-01-09T06:44:13.853Z,3.20
2023-01-09T06:45:13.847Z,3.10
2023-01-09T06:46:13.836Z,3.20
2023-01-09T06:47:13.789Z,2.90
2023-01-09T06:48:13.774Z,3.00
2023-01-09T06:49:13.788Z,3.40
2023-01-09T06:50:13.776Z,3.10
2023-01-09T06:51:13.740Z,3.40
2023-01-09T06:52:13.747Z,3.60
2023-01-09T06:53:13.710Z,3.40
2023-01-09T06:54:13.724Z,4.30
2023-01-09T06:55:13.680Z,3.80
2023-01-09T06:56:13.669Z,3.30
2023-01-09T06:57:13.660Z,3.50
2023-01-09T06:58:13.683Z,3.10
2023-01-09T06:59:13.623Z,3.10
2023-01-09T07:00:13.630Z,4.40
2023-01-09T07:01:13.722Z,3.30
2023-01-09T07:02:13.730Z,3.80
2023-01-09T07:03:13.601Z,4.90
2023-01-09T07:04:13.772Z,3.90
2023-01-09T07:05:13.570Z,5.60
2023-01-09T07:06:13.545Z,4.90
2023-01-09T07:07:13.524Z,4.50
2023-01-09T07:08:13.559Z,3.90
2023-01-09T07:09:13.481Z,3.70
2023-01-09T07:10:13.529Z,3.40
2023-01-09T07:11:13.478Z,3.30
2023-01-09T07:12:13.458Z,3.40
2023-01-09T07:13:13.446Z,3.40
2023-01-09T07:14:13.478Z,4.30
2023-01-09T07:15:13.488Z,3.60
2023-01-09T07:16:13.449Z,3.80
2023-01-09T07:17:13.389Z,3.90
2023-01-09T07:18:13.396Z,3.50
2023-01-09T07:19:13.358Z,3.20
2023-01-09T07:20:13.365Z,3.40
2023-01-09T07:21:13.368Z,3.80
2023-01-09T07:22:13.333Z,5.50
2023-01-09T07:23:13.352Z,5.40
2023-01-09T07:24:13.318Z,3.40
2023-01-09T07:25:13.352Z,3.00
2023-01-09T07:26:13.286Z,3.20
2023-01-09T07:27:13.303Z,3.20
2023-01-09T07:28:13.251Z,3.00
2023-01-09T07:29:13.254Z,4.20
2023-01-09T07:30:13.234Z,4.50
2023-01-09T07:31:13.289Z,3.70
2023-01-09T07:32:13.200Z,3.90
2023-01-09T07:33:13.180Z,4.00
2023-01-09T07:34:13.173Z,4.00
2023-01-09T07:35:13.195Z,4.10
2023-01-09T07:36:13.175Z,5.10
2023-01-09T07:37:13.129Z,4.60
2023-01-09T07:38:13.125Z,4.40
2023-01-09T07:39:13.112Z,3.50
2023-01-09T07:40:13.124Z,3.80
2023-01-09T07:41:13.086Z,3.50
2023-01-09T07:42:13.104Z,3.80
2023-01-09T07:43:13.062Z,3.90
2023-01-09T07:44:13.056Z,3.60
2023-01-09T07:45:13.027Z,3.70
2023-01-09T07:46:13.083Z,3.90
2023-01-09T07:47:13.025Z,4.20
2023-01-09T07:48:12.991Z,4.10
2023-01-09T07:49:12.981Z,4.00
2023-01-09T07:50:12.970Z,3.80
2023-01-09T07:51:12.966Z,3.40
2023-01-09T07:52:12.961Z,3.60
2023-01-09T07:53:12.931Z,3.20
2023-01-09T07:54:12.940Z,3.70
2023-01-09T07:55:12.904Z,3.50
2023-01-09T07:56:12.882Z,3.20
2023-01-09T07:57:12.888Z,3.60
2023-01-09T07:58:12.868Z,3.20
2023-01-09T07:59:12.837Z,3.10
2023-01-09T08:00:12.831Z,3.90
2023-01-09T08:01:12.957Z,3.60
2023-01-09T08:02:12.874Z,3.00
2023-01-09T08:03:12.845Z,3.60
2023-01-09T08:04:12.786Z,3.70
2023-01-09T08:05:12.796Z,3.80
2023-01-09T08:06:12.752Z,4.20
2023-01-09T08:07:12.726Z,3.60
2023-01-09T08:08:12.751Z,3.40
2023-01-09T08:09:12.724Z,3.30
2023-01-09T08:10:12.725Z,2.90
2023-01-09T08:11:12.676Z,3.40
2023-01-09T08:12:12.667Z,3.70
2023-01-09T08:13:12.658Z,3.10
2023-01-09T08:14:12.679Z,3.70
2023-01-09T08:15:12.660Z,3.40
2023-01-09T08:16:12.723Z,3.10
2023-01-09T08:17:12.608Z,3.40
2023-01-09T08:18:12.601Z,3.20
2023-01-09T08:19:12.580Z,2.80
2023-01-09T08:20:12.592Z,3.30
2023-01-09T08:21:12.579Z,3.50
2023-01-09T08:22:12.535Z,3.20
2023-01-09T08:23:12.529Z,3.70
2023-01-09T08:24:12.511Z,21.80
2023-01-09T08:25:12.899Z,21.40
2023-01-09T08:26:12.523Z,52.40
2023-01-09T08:27:12.487Z,33.50
2023-01-09T08:28:12.466Z,5.10
2023-01-09T08:29:12.473Z,27.70
2023-01-09T08:30:12.432Z,4.70
2023-01-09T08:31:12.514Z,4.30
2023-01-09T08:32:12.417Z,4.10
2023-01-09T08:33:12.431Z,4.00
2023-01-09T08:34:12.394Z,4.20
2023-01-09T08:35:12.373Z,5.00
2023-01-09T08:36:12.442Z,32.10
2023-01-09T08:37:12.369Z,12.30
2023-01-09T08:38:12.363Z,91.90
2023-01-09T08:39:12.302Z,54.50
2023-01-09T08:40:12.299Z,49.20
2023-01-09T08:41:12.297Z,25.90
2023-01-09T08:42:12.304Z,10.10
2023-01-09T08:43:12.269Z,5.90
2023-01-09T08:44:12.265Z,8.00
2023-01-09T08:45:12.241Z,6.50
2023-01-09T08:46:12.237Z,5.20
2023-01-09T08:47:12.227Z,23.30
2023-01-09T08:48:12.199Z,86.90
2023-01-09T08:49:12.196Z,82.40
2023-01-09T08:50:12.173Z,33.80
2023-01-09T08:51:12.168Z,21.00
2023-01-09T08:52:12.184Z,6.80
2023-01-09T08:53:12.151Z,9.60
2023-01-09T08:54:12.120Z,5.40
2023-01-09T08:55:12.103Z,5.30
2023-01-09T08:56:12.095Z,66.00
2023-01-09T08:57:12.069Z,4.70
2023-01-09T08:58:12.092Z,11.10
2023-01-09T08:59:12.035Z,6.40
2023-01-09T09:00:12.037Z,4.30
2023-01-09T09:01:12.101Z,4.60
2023-01-09T09:02:12.040Z,4.80
2023-01-09T09:03:12.001Z,5.30
2023-01-09T09:04:12.009Z,10.30
2023-01-09T09:05:11.988Z,6.00
2023-01-09T09:06:11.970Z,4.30
2023-01-09T09:07:11.971Z,5.70
2023-01-09T09:08:11.950Z,5.80
2023-01-09T09:09:11.928Z,5.00
2023-01-09T09:10:11.932Z,3.00
2023-01-09T09:11:11.900Z,2.80
2023-01-09T09:12:11.887Z,3.30
2023-01-09T09:13:11.890Z,2.80
2023-01-09T09:14:11.865Z,3.00
2023-01-09T09:15:11.832Z,3.30
2023-01-09T09:16:11.867Z,3.30
2023-01-09T09:17:11.830Z,3.20
2023-01-09T09:18:11.867Z,3.00
2023-01-09T09:19:11.781Z,2.80
2023-01-09T09:20:11.804Z,3.00
2023-01-09T09:21:11.748Z,3.10
2023-01-09T09:22:11.769Z,3.40
2023-01-09T09:23:11.763Z,4.50
2023-01-09T09:24:11.726Z,6.00
2023-01-09T09:25:11.699Z,4.40
2023-01-09T09:26:11.718Z,5.00
2023-01-09T09:27:11.668Z,4.70
2023-01-09T09:28:11.701Z,3.50
2023-01-09T09:29:11.652Z,3.40
2023-01-09T09:30:11.652Z,2.90
2023-01-09T09:31:11.740Z,3.50
2023-01-09T09:32:11.619Z,3.30
2023-01-09T09:33:11.616Z,2.90
2023-01-09T09:34:11.592Z,4.20
2023-01-09T09:35:11.608Z,3.00
2023-01-09T09:36:11.572Z,2.70
2023-01-09T09:37:11.607Z,13.20
2023-01-09T09:38:11.578Z,3.00
2023-01-09T09:39:11.511Z,8.20
2023-01-09T09:40:18.465Z,14.70
2023-01-09T09:41:11.492Z,2.70
2023-01-09T09:42:11.516Z,3.40
2023-01-09T09:43:11.479Z,7.10
2023-01-09T09:44:11.463Z,42.40
2023-01-09T09:45:11.445Z,3.10
2023-01-09T09:46:11.484Z,3.00
2023-01-09T09:47:11.433Z,12.00
2023-01-09T09:48:11.423Z,13.70
2023-01-09T09:49:11.402Z,10.30
2023-01-09T09:50:11.411Z,3.70
2023-01-09T09:51:11.364Z,3.80
2023-01-09T09:52:11.365Z,3.40
2023-01-09T09:53:11.326Z,8.10
2023-01-09T09:54:13.851Z,5.20
2023-01-09T09:55:11.340Z,5.10
2023-01-09T09:56:11.322Z,10.30
2023-01-09T09:57:11.280Z,124.00
2023-01-09T09:58:11.331Z,12.40
2023-01-09T09:59:11.263Z,26.00
2023-01-09T10:00:11.247Z,3.90
2023-01-09T10:01:11.237Z,12.20
2023-01-09T10:02:11.324Z,2.90
2023-01-09T10:03:11.271Z,4.40
2023-01-09T10:04:11.195Z,14.00
2023-01-09T10:05:11.168Z,5.80
2023-01-09T10:06:11.172Z,3.20
2023-01-09T10:07:11.237Z,5.20
2023-01-09T10:08:15.894Z,2.60
2023-01-09T10:09:11.167Z,5.40
2023-01-09T10:10:11.132Z,2.50
2023-01-09T10:11:11.135Z,35.80
2023-01-09T10:12:11.124Z,10.60
2023-01-09T10:13:11.080Z,49.50
2023-01-09T10:14:23.189Z,4.80
2023-01-09T10:15:11.055Z,112.00
2023-01-09T10:16:11.095Z,145.20
2023-01-09T10:17:11.082Z,34.30
2023-01-09T10:18:11.057Z,8.70
2023-01-09T10:19:10.992Z,80.70
2023-01-09T10:20:11.001Z,36.10
2023-01-09T10:21:10.963Z,281.20
2023-01-09T10:22:10.961Z,74.30
2023-01-09T10:23:10.939Z,12.40
2023-01-09T10:24:10.960Z,55.30
2023-01-09T10:25:10.948Z,74.10
2023-01-09T10:26:10.895Z,369.70
2023-01-09T10:27:10.889Z,240.20
2023-01-09T10:28:10.881Z,50.90
2023-01-09T10:29:10.895Z,352.60
2023-01-09T10:30:10.842Z,64.10
2023-01-09T10:31:10.880Z,13.30
2023-01-09T10:32:10.862Z,23.90
2023-01-09T10:33:10.845Z,70.30
2023-01-09T10:34:10.819Z,7.60
2023-01-09T10:35:10.812Z,8.40
2023-01-09T10:36:10.776Z,6.40
2023-01-09T10:37:10.808Z,3.30
2023-01-09T10:38:10.740Z,10.20
2023-01-09T10:39:10.726Z,3.40
2023-01-09T10:40:10.742Z,4.30
2023-01-09T10:41:10.749Z,2.90
2023-01-09T10:42:10.682Z,3.20
2023-01-09T10:43:10.691Z,3.50
2023-01-09T10:44:10.672Z,3.30
2023-01-09T10:45:10.660Z,4.70
2023-01-09T10:46:10.677Z,7.50
2023-01-09T10:47:10.616Z,6.00
2023-01-09T10:48:10.635Z,8.70
2023-01-09T10:49:10.625Z,4.60
2023-01-09T10:50:10.608Z,3.90
2023-01-09T10:51:10.570Z,4.10
2023-01-09T10:52:10.552Z,5.70
2023-01-09T10:53:10.582Z,4.30
2023-01-09T10:54:10.546Z,4.60
2023-01-09T10:55:10.554Z,5.60
2023-01-09T10:56:10.492Z,10.80
2023-01-09T10:57:10.520Z,31.80
2023-01-09T10:58:10.472Z,298.20
2023-01-09T10:59:10.457Z,260.00
2023-01-09T11:00:10.462Z,292.80
2023-01-09T11:01:10.437Z,589.90
2023-01-09T11:02:10.421Z,28.70
2023-01-09T11:03:10.469Z,6.50
2023-01-09T11:04:10.513Z,27.80
2023-01-09T11:05:10.450Z,9.10
2023-01-09T11:06:10.366Z,1111.30
2023-01-09T11:07:10.380Z,44.80
2023-01-09T11:08:10.362Z,4.80
2023-01-09T11:09:10.327Z,3.20
2023-01-09T11:10:10.315Z,83.60
2023-01-09T11:11:10.314Z,18.30
2023-01-09T11:12:10.285Z,851.00
2023-01-09T11:13:10.297Z,1466.00
2023-01-09T11:14:10.265Z,1999.90
2023-01-09T11:15:10.276Z,1999.90
2023-01-09T11:16:10.361Z,728.60
2023-01-09T11:17:10.219Z,1824.10
2023-01-09T11:18:10.203Z,852.30
2023-01-09T11:19:10.197Z,1587.70
2023-01-09T11:20:12.257Z,102.70
2023-01-09T11:21:10.208Z,5.30
2023-01-09T11:22:10.154Z,3.00
2023-01-09T11:23:10.148Z,3.60
2023-01-09T11:24:10.144Z,15.70
2023-01-09T11:25:10.112Z,84.40
2023-01-09T11:26:11.079Z,152.70
2023-01-09T11:27:10.092Z,1057.20
2023-01-09T11:28:10.069Z,1587.70
2023-01-09T11:29:10.061Z,1999.90
2023-01-09T11:30:10.056Z,860.90
2023-01-09T11:31:10.067Z,159.90
2023-01-09T11:32:10.044Z,247.00
2023-01-09T11:33:10.019Z,797.90
2023-01-09T11:34:10.028Z,75.00
2023-01-09T11:35:09.991Z,1999.90
2023-01-09T11:36:09.964Z,1024.30
2023-01-09T11:37:10.074Z,627.80
2023-01-09T11:38:09.954Z,384.40
2023-01-09T11:39:09.944Z,17.10
2023-01-09T11:40:09.938Z,36.30
2023-01-09T11:41:09.903Z,195.10
2023-01-09T11:42:09.888Z,64.10
2023-01-09T11:43:09.888Z,10.10
2023-01-09T11:44:09.878Z,11.40
2023-01-09T11:45:09.857Z,10.20
2023-01-09T11:46:09.830Z,5.90
2023-01-09T11:47:09.847Z,14.30
2023-01-09T11:48:09.800Z,4.40
2023-01-09T11:49:09.812Z,3.10
2023-01-09T11:50:09.773Z,21.40
2023-01-09T11:51:09.780Z,59.60
2023-01-09T11:52:09.764Z,37.60
2023-01-09T11:53:09.748Z,9.40
2023-01-09T11:54:09.712Z,21.20
2023-01-09T11:55:09.752Z,9.60
2023-01-09T11:56:09.692Z,30.50
2023-01-09T11:57:09.723Z,9.50
2023-01-09T11:58:09.674Z,15.00
2023-01-09T11:59:09.665Z,12.50
2023-01-09T12:00:09.672Z,8.50
2023-01-09T12:01:09.649Z,12.20
2023-01-09T12:02:09.669Z,13.40
2023-01-09T12:03:09.651Z,27.00
2023-01-09T12:04:09.594Z,6.50
2023-01-09T12:05:09.603Z,26.30
2023-01-09T12:06:09.564Z,16.80
2023-01-09T12:07:09.558Z,3.10
2023-01-09T12:08:09.545Z,6.00
2023-01-09T12:09:09.558Z,20.90
2023-01-09T12:10:09.544Z,17.80
2023-01-09T12:11:09.507Z,196.30
2023-01-09T12:12:09.487Z,155.40
2023-01-09T12:13:09.469Z,1750.60
2023-01-09T12:14:09.464Z,288.10
2023-01-09T12:15:10.202Z,25.50
2023-01-09T12:16:09.521Z,3.70
2023-01-09T12:17:09.417Z,15.10
2023-01-09T12:18:09.422Z,3.20
2023-01-09T12:19:09.393Z,2.90
2023-01-09T12:20:09.397Z,2.60
2023-01-09T12:21:09.388Z,11.60
2023-01-09T12:22:09.349Z,43.10
2023-01-09T12:23:09.364Z,221.30
2023-01-09T12:24:09.333Z,1544.80
2023-01-09T12:25:09.319Z,1999.90
2023-01-09T12:26:09.291Z,1138.90
2023-01-09T12:27:09.333Z,506.60
2023-01-09T12:28:09.262Z,371.30
2023-01-09T12:29:09.276Z,95.90
2023-01-09T12:30:09.227Z,446.40
2023-01-09T12:31:09.283Z,16.70
2023-01-09T12:32:09.319Z,8.10
2023-01-09T12:33:09.277Z,376.60
2023-01-09T12:34:09.212Z,649.50
2023-01-09T12:35:09.172Z,81.10
2023-01-09T12:36:09.160Z,501.80
2023-01-09T12:37:11.492Z,22.60
2023-01-09T12:38:09.139Z,158.50
2023-01-09T12:39:09.124Z,383.90
2023-01-09T12:40:09.104Z,277.50
2023-01-09T12:41:09.131Z,118.90
2023-01-09T12:42:09.086Z,3.10
2023-01-09T12:43:09.065Z,5.40
2023-01-09T12:44:09.045Z,24.50
2023-01-09T12:45:09.084Z,56.70
2023-01-09T12:46:09.045Z,39.40
2023-01-09T12:47:09.057Z,18.10
2023-01-09T12:48:09.010Z,31.70
2023-01-09T12:49:09.032Z,158.10
2023-01-09T12:50:08.969Z,1999.90
2023-01-09T12:51:08.965Z,518.10
2023-01-09T12:52:08.947Z,1587.00
2023-01-09T12:53:08.957Z,1931.00
2023-01-09T12:54:08.920Z,22.30
2023-01-09T12:55:08.913Z,11.80
2023-01-09T12:56:08.894Z,12.20
2023-01-09T12:57:08.902Z,5.50
2023-01-09T12:58:08.865Z,10.50
2023-01-09T12:59:08.859Z,66.30
2023-01-09T13:00:08.850Z,26.60
2023-01-09T13:01:08.916Z,204.50
2023-01-09T13:02:08.894Z,125.50
2023-01-09T13:03:12.866Z,71.90
2023-01-09T13:04:08.782Z,17.80
2023-01-09T13:05:08.813Z,8.10
2023-01-09T13:06:08.750Z,197.90
2023-01-09T13:07:08.767Z,112.80
2023-01-09T13:08:08.738Z,114.20
2023-01-09T13:09:08.714Z,101.30
2023-01-09T13:10:08.724Z,49.70